sensor_id;sensor_type;location;lat;lon;timestamp;P1;durP1;ratioP1;P2;durP2;ratioP2
28625;SDS011;18905;42.668;23.364;2023-07-20T00:01:01;10.65;;;2.58;;
28625;SDS011;18905;42.668;23.364;2023-07-20T00:03:27;10.18;;;2.60;;
28625;SDS011;18905;42.668;23.364;2023-07-20T00:05:52;11.40;;;3.40;;
28625;SDS011;18905;42.668;23.364;2023-07-20T00:08:18;12.30;;;3.35;;
28625;SDS011;18905;42.668;23.364;2023-07-20T00:10:43;13.05;;;3.17;;
28625;SDS011;18905;42.668;23.364;2023-07-20T00:13:09;11.40;;;3.00;;
28625;SDS011;18905;42.668;23.364;2023-07-20T00:15:37;14.80;;;3.53;;
28625;SDS011;18905;42.668;23.364;2023-07-20T00:18:06;13.63;;;3.25;;
28625;SDS011;18905;42.668;23.364;2023-07-20T00:20:31;10.13;;;3.10;;
28625;SDS011;18905;42.668;23.364;2023-07-20T00:22:57;13.05;;;2.78;;
28625;SDS011;18905;42.668;23.364;2023-07-20T00:25:23;13.40;;;2.90;;
28625;SDS011;18905;42.668;23.364;2023-07-20T00:27:49;9.73;;;2.90;;
28625;SDS011;18905;42.668;23.364;2023-07-20T00:30:15;11.90;;;3.63;;
28625;SDS011;18905;42.668;23.364;2023-07-20T00:32:41;8.70;;;3.00;;
28625;SDS011;18905;42.668;23.364;2023-07-20T00:43:00;16.85;;;2.80;;
28625;SDS011;18905;42.668;23.364;2023-07-20T00:45:26;14.32;;;3.08;;
28625;SDS011;18905;42.668;23.364;2023-07-20T00:47:51;11.43;;;3.17;;
28625;SDS011;18905;42.668;23.364;2023-07-20T00:50:17;14.15;;;3.50;;
28625;SDS011;18905;42.668;23.364;2023-07-20T00:52:42;11.75;;;3.20;;
28625;SDS011;18905;42.668;23.364;2023-07-20T00:55:08;10.00;;;2.65;;
28625;SDS011;18905;42.668;23.364;2023-07-20T00:57:34;9.85;;;3.28;;
28625;SDS011;18905;42.668;23.364;2023-07-20T00:59:59;15.00;;;3.55;;
28625;SDS011;18905;42.668;23.364;2023-07-20T01:02:25;13.63;;;3.30;;
28625;SDS011;18905;42.668;23.364;2023-07-20T01:04:50;11.52;;;3.10;;
28625;SDS011;18905;42.668;23.364;2023-07-20T01:12:51;7.72;;;2.70;;
28625;SDS011;18905;42.668;23.364;2023-07-20T01:15:17;9.18;;;2.67;;
28625;SDS011;18905;42.668;23.364;2023-07-20T01:17:43;13.75;;;3.00;;
28625;SDS011;18905;42.668;23.364;2023-07-20T01:20:10;17.77;;;3.33;;
28625;SDS011;18905;42.668;23.364;2023-07-20T01:25:45;11.90;;;3.15;;
28625;SDS011;18905;42.668;23.364;2023-07-20T01:31:48;11.95;;;3.00;;
28625;SDS011;18905;42.668;23.364;2023-07-20T01:34:17;9.77;;;2.72;;
28625;SDS011;18905;42.668;23.364;2023-07-20T01:39:19;14.05;;;3.25;;
28625;SDS011;18905;42.668;23.364;2023-07-20T01:41:49;12.57;;;2.65;;
28625;SDS011;18905;42.668;23.364;2023-07-20T01:44:15;10.13;;;3.17;;
28625;SDS011;18905;42.668;23.364;2023-07-20T01:46:41;16.58;;;3.40;;
28625;SDS011;18905;42.668;23.364;2023-07-20T01:49:06;11.10;;;3.25;;
28625;SDS011;18905;42.668;23.364;2023-07-20T01:51:32;10.15;;;3.20;;
28625;SDS011;18905;42.668;23.364;2023-07-20T01:53:58;11.23;;;3.30;;
28625;SDS011;18905;42.668;23.364;2023-07-20T01:56:24;9.60;;;3.30;;
28625;SDS011;18905;42.668;23.364;2023-07-20T01:58:50;10.50;;;3.30;;
28625;SDS011;18905;42.668;23.364;2023-07-20T02:01:16;10.18;;;2.88;;
28625;SDS011;18905;42.668;23.364;2023-07-20T02:03:42;9.38;;;3.28;;
28625;SDS011;18905;42.668;23.364;2023-07-20T02:06:07;9.95;;;3.28;;
28625;SDS011;18905;42.668;23.364;2023-07-20T02:08:33;9.73;;;3.22;;
28625;SDS011;18905;42.668;23.364;2023-07-20T02:10:59;8.63;;;3.60;;
28625;SDS011;18905;42.668;23.364;2023-07-20T02:13:25;5.85;;;2.70;;
28625;SDS011;18905;42.668;23.364;2023-07-20T02:15:50;11.50;;;3.08;;
28625;SDS011;18905;42.668;23.364;2023-07-20T02:18:16;9.55;;;3.58;;
28625;SDS011;18905;42.668;23.364;2023-07-20T02:20:42;10.40;;;3.92;;
28625;SDS011;18905;42.668;23.364;2023-07-20T02:23:08;11.30;;;3.20;;
28625;SDS011;18905;42.668;23.364;2023-07-20T02:25:33;11.45;;;2.97;;
28625;SDS011;18905;42.668;23.364;2023-07-20T02:27:59;9.23;;;3.80;;
28625;SDS011;18905;42.668;23.364;2023-07-20T02:30:24;10.63;;;3.50;;
28625;SDS011;18905;42.668;23.364;2023-07-20T02:32:50;8.20;;;3.25;;
28625;SDS011;18905;42.668;23.364;2023-07-20T02:35:16;7.93;;;2.78;;
28625;SDS011;18905;42.668;23.364;2023-07-20T02:37:41;13.55;;;3.70;;
28625;SDS011;18905;42.668;23.364;2023-07-20T02:40:07;11.25;;;3.00;;
28625;SDS011;18905;42.668;23.364;2023-07-20T02:42:34;8.50;;;3.42;;
28625;SDS011;18905;42.668;23.364;2023-07-20T02:45:00;14.43;;;4.20;;
28625;SDS011;18905;42.668;23.364;2023-07-20T02:47:30;14.88;;;3.88;;
28625;SDS011;18905;42.668;23.364;2023-07-20T02:49:56;14.10;;;3.63;;
28625;SDS011;18905;42.668;23.364;2023-07-20T02:52:22;15.10;;;3.20;;
28625;SDS011;18905;42.668;23.364;2023-07-20T02:54:48;7.30;;;3.70;;
28625;SDS011;18905;42.668;23.364;2023-07-20T02:57:14;10.68;;;3.78;;
28625;SDS011;18905;42.668;23.364;2023-07-20T02:59:39;13.80;;;4.00;;
28625;SDS011;18905;42.668;23.364;2023-07-20T03:02:05;11.43;;;3.90;;
28625;SDS011;18905;42.668;23.364;2023-07-20T03:04:30;15.02;;;3.40;;
28625;SDS011;18905;42.668;23.364;2023-07-20T03:06:59;13.23;;;3.75;;
28625;SDS011;18905;42.668;23.364;2023-07-20T03:09:25;11.40;;;3.55;;
28625;SDS011;18905;42.668;23.364;2023-07-20T03:11:50;7.32;;;3.50;;
28625;SDS011;18905;42.668;23.364;2023-07-20T03:14:16;12.13;;;3.80;;
28625;SDS011;18905;42.668;23.364;2023-07-20T03:16:42;11.40;;;3.83;;
28625;SDS011;18905;42.668;23.364;2023-07-20T03:19:08;13.63;;;3.45;;
28625;SDS011;18905;42.668;23.364;2023-07-20T03:21:33;12.85;;;3.58;;
28625;SDS011;18905;42.668;23.364;2023-07-20T03:23:59;14.00;;;3.97;;
28625;SDS011;18905;42.668;23.364;2023-07-20T03:26:25;12.55;;;4.35;;
28625;SDS011;18905;42.668;23.364;2023-07-20T03:28:50;16.90;;;3.95;;
28625;SDS011;18905;42.668;23.364;2023-07-20T03:31:16;14.30;;;4.30;;
28625;SDS011;18905;42.668;23.364;2023-07-20T03:33:42;12.38;;;3.80;;
28625;SDS011;18905;42.668;23.364;2023-07-20T03:36:07;19.15;;;4.03;;
28625;SDS011;18905;42.668;23.364;2023-07-20T03:38:35;15.82;;;4.20;;
28625;SDS011;18905;42.668;23.364;2023-07-20T03:41:01;11.60;;;4.05;;
28625;SDS011;18905;42.668;23.364;2023-07-20T03:43:27;12.40;;;3.70;;
28625;SDS011;18905;42.668;23.364;2023-07-20T03:45:53;17.50;;;3.85;;
28625;SDS011;18905;42.668;23.364;2023-07-20T03:48:22;13.82;;;3.75;;
28625;SDS011;18905;42.668;23.364;2023-07-20T03:50:49;15.23;;;4.10;;
28625;SDS011;18905;42.668;23.364;2023-07-20T03:53:16;21.58;;;3.92;;
28625;SDS011;18905;42.668;23.364;2023-07-20T03:55:46;11.85;;;3.70;;
28625;SDS011;18905;42.668;23.364;2023-07-20T03:58:16;17.17;;;3.67;;
28625;SDS011;18905;42.668;23.364;2023-07-20T04:00:45;13.02;;;4.03;;
28625;SDS011;18905;42.668;23.364;2023-07-20T04:03:13;14.15;;;4.18;;
28625;SDS011;18905;42.668;23.364;2023-07-20T04:13:22;14.15;;;4.15;;
28625;SDS011;18905;42.668;23.364;2023-07-20T04:18:23;9.98;;;3.85;;
28625;SDS011;18905;42.668;23.364;2023-07-20T04:20:49;11.60;;;3.72;;
28625;SDS011;18905;42.668;23.364;2023-07-20T04:23:14;16.75;;;4.10;;
28625;SDS011;18905;42.668;23.364;2023-07-20T04:25:40;15.40;;;4.60;;
28625;SDS011;18905;42.668;23.364;2023-07-20T04:28:06;20.75;;;4.75;;
28625;SDS011;18905;42.668;23.364;2023-07-20T04:30:35;11.23;;;3.80;;
28625;SDS011;18905;42.668;23.364;2023-07-20T04:33:02;11.95;;;4.00;;
28625;SDS011;18905;42.668;23.364;2023-07-20T04:38:19;12.85;;;4.43;;
28625;SDS011;18905;42.668;23.364;2023-07-20T04:40:46;17.15;;;4.25;;
28625;SDS011;18905;42.668;23.364;2023-07-20T04:43:14;10.75;;;3.80;;
28625;SDS011;18905;42.668;23.364;2023-07-20T04:45:41;13.10;;;4.05;;
28625;SDS011;18905;42.668;23.364;2023-07-20T04:48:08;18.13;;;4.50;;
28625;SDS011;18905;42.668;23.364;2023-07-20T04:50:36;8.75;;;4.00;;
28625;SDS011;18905;42.668;23.364;2023-07-20T04:53:03;19.17;;;3.75;;
28625;SDS011;18905;42.668;23.364;2023-07-20T04:55:28;11.25;;;3.50;;
28625;SDS011;18905;42.668;23.364;2023-07-20T04:57:54;12.60;;;3.60;;
28625;SDS011;18905;42.668;23.364;2023-07-20T05:00:19;14.35;;;3.53;;
28625;SDS011;18905;42.668;23.364;2023-07-20T05:02:46;15.80;;;4.25;;
28625;SDS011;18905;42.668;23.364;2023-07-20T05:05:14;13.50;;;3.83;;
28625;SDS011;18905;42.668;23.364;2023-07-20T05:07:40;15.18;;;4.00;;
28625;SDS011;18905;42.668;23.364;2023-07-20T05:10:05;17.30;;;3.90;;
28625;SDS011;18905;42.668;23.364;2023-07-20T05:12:31;15.65;;;4.47;;
28625;SDS011;18905;42.668;23.364;2023-07-20T05:14:56;16.30;;;3.85;;
28625;SDS011;18905;42.668;23.364;2023-07-20T05:17:22;12.55;;;4.32;;
28625;SDS011;18905;42.668;23.364;2023-07-20T05:19:47;14.85;;;4.63;;
28625;SDS011;18905;42.668;23.364;2023-07-20T05:22:16;12.07;;;4.22;;
28625;SDS011;18905;42.668;23.364;2023-07-20T05:24:41;13.43;;;4.18;;
28625;SDS011;18905;42.668;23.364;2023-07-20T05:27:07;15.13;;;4.43;;
28625;SDS011;18905;42.668;23.364;2023-07-20T05:29:32;16.50;;;4.25;;
28625;SDS011;18905;42.668;23.364;2023-07-20T05:31:58;23.15;;;4.55;;
28625;SDS011;18905;42.668;23.364;2023-07-20T05:34:23;16.42;;;4.07;;
28625;SDS011;18905;42.668;23.364;2023-07-20T05:36:49;14.23;;;4.18;;
28625;SDS011;18905;42.668;23.364;2023-07-20T05:39:16;20.05;;;4.53;;
28625;SDS011;18905;42.668;23.364;2023-07-20T05:41:42;9.00;;;4.78;;
28625;SDS011;18905;42.668;23.364;2023-07-20T05:44:07;21.63;;;5.03;;
28625;SDS011;18905;42.668;23.364;2023-07-20T05:46:32;13.25;;;4.97;;
28625;SDS011;18905;42.668;23.364;2023-07-20T05:48:58;13.05;;;4.97;;
28625;SDS011;18905;42.668;23.364;2023-07-20T05:51:23;17.73;;;4.15;;
28625;SDS011;18905;42.668;23.364;2023-07-20T05:53:48;11.07;;;4.32;;
28625;SDS011;18905;42.668;23.364;2023-07-20T05:56:14;14.27;;;4.45;;
28625;SDS011;18905;42.668;23.364;2023-07-20T05:58:39;9.93;;;3.97;;
28625;SDS011;18905;42.668;23.364;2023-07-20T06:01:05;16.85;;;4.60;;
28625;SDS011;18905;42.668;23.364;2023-07-20T06:03:31;14.38;;;3.72;;
28625;SDS011;18905;42.668;23.364;2023-07-20T06:06:01;12.13;;;3.38;;
28625;SDS011;18905;42.668;23.364;2023-07-20T06:08:29;14.13;;;4.25;;
28625;SDS011;18905;42.668;23.364;2023-07-20T06:10:55;13.00;;;3.53;;
28625;SDS011;18905;42.668;23.364;2023-07-20T06:13:21;10.40;;;3.83;;
28625;SDS011;18905;42.668;23.364;2023-07-20T06:15:46;13.88;;;4.35;;
28625;SDS011;18905;42.668;23.364;2023-07-20T06:18:12;11.50;;;3.97;;
28625;SDS011;18905;42.668;23.364;2023-07-20T06:20:38;13.52;;;3.83;;
28625;SDS011;18905;42.668;23.364;2023-07-20T06:23:03;11.98;;;4.07;;
28625;SDS011;18905;42.668;23.364;2023-07-20T06:25:29;14.40;;;4.00;;
28625;SDS011;18905;42.668;23.364;2023-07-20T06:27:55;19.80;;;4.68;;
28625;SDS011;18905;42.668;23.364;2023-07-20T06:30:21;13.48;;;4.00;;
28625;SDS011;18905;42.668;23.364;2023-07-20T06:32:46;14.40;;;4.13;;
28625;SDS011;18905;42.668;23.364;2023-07-20T06:35:12;17.98;;;4.40;;
28625;SDS011;18905;42.668;23.364;2023-07-20T06:37:37;19.98;;;5.07;;
28625;SDS011;18905;42.668;23.364;2023-07-20T06:40:03;17.90;;;5.40;;
28625;SDS011;18905;42.668;23.364;2023-07-20T06:42:29;17.65;;;5.80;;
28625;SDS011;18905;42.668;23.364;2023-07-20T06:44:56;20.00;;;5.50;;
28625;SDS011;18905;42.668;23.364;2023-07-20T06:47:22;22.55;;;5.13;;
28625;SDS011;18905;42.668;23.364;2023-07-20T06:49:47;15.80;;;4.80;;
28625;SDS011;18905;42.668;23.364;2023-07-20T06:52:13;19.33;;;5.65;;
28625;SDS011;18905;42.668;23.364;2023-07-20T06:54:38;15.82;;;4.60;;
28625;SDS011;18905;42.668;23.364;2023-07-20T06:57:04;15.48;;;5.20;;
28625;SDS011;18905;42.668;23.364;2023-07-20T06:59:30;19.92;;;4.93;;
28625;SDS011;18905;42.668;23.364;2023-07-20T07:01:55;15.65;;;5.30;;
28625;SDS011;18905;42.668;23.364;2023-07-20T07:04:21;14.25;;;4.50;;
28625;SDS011;18905;42.668;23.364;2023-07-20T07:06:46;22.70;;;5.43;;
28625;SDS011;18905;42.668;23.364;2023-07-20T07:09:13;13.85;;;5.20;;
28625;SDS011;18905;42.668;23.364;2023-07-20T07:11:38;21.60;;;5.40;;
28625;SDS011;18905;42.668;23.364;2023-07-20T07:14:04;14.02;;;4.43;;
28625;SDS011;18905;42.668;23.364;2023-07-20T07:16:29;17.88;;;5.57;;
28625;SDS011;18905;42.668;23.364;2023-07-20T07:18:54;23.35;;;4.95;;
28625;SDS011;18905;42.668;23.364;2023-07-20T07:21:20;21.42;;;5.35;;
28625;SDS011;18905;42.668;23.364;2023-07-20T07:23:46;15.73;;;5.18;;
28625;SDS011;18905;42.668;23.364;2023-07-20T07:26:12;16.83;;;5.80;;
28625;SDS011;18905;42.668;23.364;2023-07-20T07:28:37;22.55;;;5.75;;
28625;SDS011;18905;42.668;23.364;2023-07-20T07:31:12;18.65;;;4.93;;
28625;SDS011;18905;42.668;23.364;2023-07-20T07:33:37;21.92;;;5.43;;
28625;SDS011;18905;42.668;23.364;2023-07-20T07:36:03;13.02;;;4.65;;
28625;SDS011;18905;42.668;23.364;2023-07-20T07:38:28;14.40;;;4.68;;
28625;SDS011;18905;42.668;23.364;2023-07-20T07:40:54;18.42;;;5.10;;
28625;SDS011;18905;42.668;23.364;2023-07-20T07:43:19;12.23;;;4.55;;
28625;SDS011;18905;42.668;23.364;2023-07-20T07:45:44;33.13;;;4.65;;
28625;SDS011;18905;42.668;23.364;2023-07-20T07:48:10;14.73;;;4.70;;
28625;SDS011;18905;42.668;23.364;2023-07-20T07:50:39;12.55;;;4.30;;
28625;SDS011;18905;42.668;23.364;2023-07-20T07:53:08;16.48;;;5.00;;
28625;SDS011;18905;42.668;23.364;2023-07-20T07:55:34;26.55;;;5.35;;
28625;SDS011;18905;42.668;23.364;2023-07-20T07:58:00;16.42;;;4.82;;
28625;SDS011;18905;42.668;23.364;2023-07-20T08:00:25;15.13;;;4.38;;
28625;SDS011;18905;42.668;23.364;2023-07-20T08:02:51;12.02;;;4.25;;
28625;SDS011;18905;42.668;23.364;2023-07-20T08:05:17;20.65;;;5.03;;
28625;SDS011;18905;42.668;23.364;2023-07-20T08:07:42;19.85;;;4.95;;
28625;SDS011;18905;42.668;23.364;2023-07-20T08:10:08;21.20;;;5.20;;
28625;SDS011;18905;42.668;23.364;2023-07-20T08:12:34;19.52;;;4.97;;
28625;SDS011;18905;42.668;23.364;2023-07-20T08:14:59;14.38;;;5.05;;
28625;SDS011;18905;42.668;23.364;2023-07-20T08:17:25;17.90;;;4.90;;
28625;SDS011;18905;42.668;23.364;2023-07-20T08:19:50;41.78;;;5.47;;
28625;SDS011;18905;42.668;23.364;2023-07-20T08:22:16;14.38;;;4.30;;
28625;SDS011;18905;42.668;23.364;2023-07-20T08:24:41;12.93;;;3.85;;
28625;SDS011;18905;42.668;23.364;2023-07-20T08:27:08;15.30;;;4.30;;
28625;SDS011;18905;42.668;23.364;2023-07-20T08:29:34;11.85;;;4.03;;
28625;SDS011;18905;42.668;23.364;2023-07-20T08:32:00;22.85;;;4.18;;
28625;SDS011;18905;42.668;23.364;2023-07-20T08:34:26;19.13;;;4.32;;
28625;SDS011;18905;42.668;23.364;2023-07-20T08:36:51;10.90;;;4.10;;
28625;SDS011;18905;42.668;23.364;2023-07-20T08:39:16;14.00;;;4.10;;
28625;SDS011;18905;42.668;23.364;2023-07-20T08:41:46;9.70;;;3.25;;
28625;SDS011;18905;42.668;23.364;2023-07-20T08:44:11;9.65;;;3.20;;
28625;SDS011;18905;42.668;23.364;2023-07-20T08:54:23;11.35;;;2.90;;
28625;SDS011;18905;42.668;23.364;2023-07-20T09:04:37;13.95;;;3.53;;
28625;SDS011;18905;42.668;23.364;2023-07-20T09:07:03;15.27;;;3.63;;
28625;SDS011;18905;42.668;23.364;2023-07-20T09:09:28;19.55;;;3.67;;
28625;SDS011;18905;42.668;23.364;2023-07-20T09:11:53;15.93;;;3.83;;
28625;SDS011;18905;42.668;23.364;2023-07-20T09:14:19;15.55;;;3.30;;
28625;SDS011;18905;42.668;23.364;2023-07-20T09:16:51;15.60;;;3.72;;
28625;SDS011;18905;42.668;23.364;2023-07-20T09:19:19;12.27;;;3.05;;
28625;SDS011;18905;42.668;23.364;2023-07-20T09:21:49;8.82;;;2.72;;
28625;SDS011;18905;42.668;23.364;2023-07-20T09:24:19;8.40;;;3.03;;
28625;SDS011;18905;42.668;23.364;2023-07-20T09:26:45;11.98;;;2.90;;
28625;SDS011;18905;42.668;23.364;2023-07-20T09:29:19;11.02;;;3.63;;
28625;SDS011;18905;42.668;23.364;2023-07-20T09:31:58;9.90;;;3.13;;
28625;SDS011;18905;42.668;23.364;2023-07-20T09:34:25;8.27;;;2.92;;
28625;SDS011;18905;42.668;23.364;2023-07-20T09:36:51;11.88;;;3.08;;
28625;SDS011;18905;42.668;23.364;2023-07-20T09:39:17;13.60;;;3.63;;
28625;SDS011;18905;42.668;23.364;2023-07-20T09:41:42;13.77;;;3.22;;
28625;SDS011;18905;42.668;23.364;2023-07-20T09:44:08;7.00;;;2.75;;
28625;SDS011;18905;42.668;23.364;2023-07-20T09:46:48;11.85;;;3.15;;
28625;SDS011;18905;42.668;23.364;2023-07-20T09:49:14;11.45;;;3.42;;
28625;SDS011;18905;42.668;23.364;2023-07-20T09:51:40;10.10;;;2.60;;
28625;SDS011;18905;42.668;23.364;2023-07-20T09:54:07;13.55;;;3.28;;
28625;SDS011;18905;42.668;23.364;2023-07-20T09:56:32;15.70;;;2.80;;
28625;SDS011;18905;42.668;23.364;2023-07-20T09:58:58;9.27;;;3.00;;
28625;SDS011;18905;42.668;23.364;2023-07-20T10:01:24;9.50;;;2.88;;
28625;SDS011;18905;42.668;23.364;2023-07-20T10:03:53;9.02;;;2.70;;
28625;SDS011;18905;42.668;23.364;2023-07-20T10:06:23;14.25;;;3.10;;
28625;SDS011;18905;42.668;23.364;2023-07-20T10:08:52;12.20;;;2.70;;
28625;SDS011;18905;42.668;23.364;2023-07-20T10:11:18;10.85;;;2.92;;
28625;SDS011;18905;42.668;23.364;2023-07-20T10:13:46;12.60;;;2.90;;
28625;SDS011;18905;42.668;23.364;2023-07-20T10:16:22;12.25;;;2.72;;
28625;SDS011;18905;42.668;23.364;2023-07-20T10:21:40;13.52;;;3.35;;
28625;SDS011;18905;42.668;23.364;2023-07-20T10:24:12;9.15;;;2.95;;
28625;SDS011;18905;42.668;23.364;2023-07-20T10:26:38;7.13;;;2.75;;
28625;SDS011;18905;42.668;23.364;2023-07-20T10:29:04;10.20;;;2.47;;
28625;SDS011;18905;42.668;23.364;2023-07-20T10:31:30;10.18;;;3.08;;
28625;SDS011;18905;42.668;23.364;2023-07-20T10:33:57;7.80;;;2.80;;
28625;SDS011;18905;42.668;23.364;2023-07-20T10:36:26;8.73;;;2.72;;
28625;SDS011;18905;42.668;23.364;2023-07-20T10:38:53;11.18;;;2.45;;
28625;SDS011;18905;42.668;23.364;2023-07-20T10:41:20;11.00;;;2.97;;
28625;SDS011;18905;42.668;23.364;2023-07-20T10:43:47;8.63;;;2.63;;
28625;SDS011;18905;42.668;23.364;2023-07-20T10:46:13;10.73;;;2.85;;
28625;SDS011;18905;42.668;23.364;2023-07-20T10:51:27;12.73;;;2.60;;
28625;SDS011;18905;42.668;23.364;2023-07-20T10:53:54;7.30;;;2.65;;
28625;SDS011;18905;42.668;23.364;2023-07-20T10:56:25;13.60;;;3.67;;
28625;SDS011;18905;42.668;23.364;2023-07-20T10:58:57;13.73;;;2.95;;
28625;SDS011;18905;42.668;23.364;2023-07-20T11:01:25;9.23;;;2.72;;
28625;SDS011;18905;42.668;23.364;2023-07-20T11:03:56;12.43;;;2.88;;
28625;SDS011;18905;42.668;23.364;2023-07-20T11:08:54;12.32;;;2.72;;
28625;SDS011;18905;42.668;23.364;2023-07-20T11:11:25;9.38;;;2.63;;
28625;SDS011;18905;42.668;23.364;2023-07-20T11:13:56;10.30;;;3.15;;
28625;SDS011;18905;42.668;23.364;2023-07-20T11:16:41;10.18;;;2.85;;
28625;SDS011;18905;42.668;23.364;2023-07-20T11:19:24;12.10;;;3.25;;
28625;SDS011;18905;42.668;23.364;2023-07-20T11:21:54;9.05;;;3.35;;
28625;SDS011;18905;42.668;23.364;2023-07-20T11:24:23;9.40;;;2.90;;
28625;SDS011;18905;42.668;23.364;2023-07-20T11:26:50;10.88;;;2.75;;
28625;SDS011;18905;42.668;23.364;2023-07-20T11:29:17;12.23;;;3.72;;
28625;SDS011;18905;42.668;23.364;2023-07-20T11:31:44;7.47;;;2.88;;
28625;SDS011;18905;42.668;23.364;2023-07-20T11:34:12;8.10;;;3.45;;
28625;SDS011;18905;42.668;23.364;2023-07-20T11:36:43;11.15;;;3.58;;
28625;SDS011;18905;42.668;23.364;2023-07-20T11:39:10;11.18;;;3.75;;
28625;SDS011;18905;42.668;23.364;2023-07-20T11:41:36;10.32;;;3.67;;
28625;SDS011;18905;42.668;23.364;2023-07-20T11:44:03;13.38;;;5.72;;
28625;SDS011;18905;42.668;23.364;2023-07-20T11:46:31;10.40;;;4.07;;
28625;SDS011;18905;42.668;23.364;2023-07-20T11:48:58;7.13;;;3.30;;
28625;SDS011;18905;42.668;23.364;2023-07-20T11:51:27;10.18;;;3.47;;
28625;SDS011;18905;42.668;23.364;2023-07-20T11:53:53;9.98;;;4.05;;
28625;SDS011;18905;42.668;23.364;2023-07-20T11:56:19;8.32;;;4.03;;
28625;SDS011;18905;42.668;23.364;2023-07-20T11:58:45;9.13;;;3.53;;
28625;SDS011;18905;42.668;23.364;2023-07-20T12:01:14;14.20;;;4.25;;
28625;SDS011;18905;42.668;23.364;2023-07-20T12:03:41;8.65;;;4.05;;
28625;SDS011;18905;42.668;23.364;2023-07-20T12:06:10;7.05;;;3.88;;
28625;SDS011;18905;42.668;23.364;2023-07-20T12:08:39;10.77;;;4.15;;
28625;SDS011;18905;42.668;23.364;2023-07-20T12:11:06;12.80;;;4.18;;
28625;SDS011;18905;42.668;23.364;2023-07-20T12:13:36;10.48;;;3.95;;
28625;SDS011;18905;42.668;23.364;2023-07-20T12:16:10;7.43;;;3.70;;
28625;SDS011;18905;42.668;23.364;2023-07-20T12:18:36;9.85;;;3.55;;
28625;SDS011;18905;42.668;23.364;2023-07-20T12:21:02;10.07;;;3.20;;
28625;SDS011;18905;42.668;23.364;2023-07-20T12:23:34;11.90;;;3.53;;
28625;SDS011;18905;42.668;23.364;2023-07-20T12:26:05;11.10;;;3.97;;
28625;SDS011;18905;42.668;23.364;2023-07-20T12:28:32;13.35;;;4.38;;
28625;SDS011;18905;42.668;23.364;2023-07-20T12:30:58;14.80;;;3.53;;
28625;SDS011;18905;42.668;23.364;2023-07-20T12:33:23;12.85;;;3.40;;
28625;SDS011;18905;42.668;23.364;2023-07-20T12:35:49;11.10;;;3.58;;
28625;SDS011;18905;42.668;23.364;2023-07-20T12:38:15;11.23;;;3.05;;
28625;SDS011;18905;42.668;23.364;2023-07-20T12:40:41;12.65;;;3.13;;
28625;SDS011;18905;42.668;23.364;2023-07-20T12:43:07;9.38;;;3.15;;
28625;SDS011;18905;42.668;23.364;2023-07-20T12:45:32;12.00;;;3.22;;
28625;SDS011;18905;42.668;23.364;2023-07-20T12:47:58;11.90;;;2.95;;
28625;SDS011;18905;42.668;23.364;2023-07-20T12:50:24;10.77;;;3.05;;
28625;SDS011;18905;42.668;23.364;2023-07-20T12:52:50;8.75;;;2.75;;
28625;SDS011;18905;42.668;23.364;2023-07-20T12:55:15;8.13;;;3.60;;
28625;SDS011;18905;42.668;23.364;2023-07-20T12:57:41;9.32;;;2.72;;
28625;SDS011;18905;42.668;23.364;2023-07-20T13:00:08;16.23;;;3.20;;
28625;SDS011;18905;42.668;23.364;2023-07-20T13:02:35;7.30;;;3.00;;
28625;SDS011;18905;42.668;23.364;2023-07-20T13:05:01;10.23;;;3.08;;
28625;SDS011;18905;42.668;23.364;2023-07-20T13:07:31;11.77;;;3.38;;
28625;SDS011;18905;42.668;23.364;2023-07-20T13:09:58;10.35;;;3.22;;
28625;SDS011;18905;42.668;23.364;2023-07-20T13:12:25;11.82;;;3.30;;
28625;SDS011;18905;42.668;23.364;2023-07-20T13:14:55;9.02;;;3.10;;
28625;SDS011;18905;42.668;23.364;2023-07-20T13:17:21;10.98;;;3.10;;
28625;SDS011;18905;42.668;23.364;2023-07-20T13:19:49;7.53;;;3.10;;
28625;SDS011;18905;42.668;23.364;2023-07-20T13:22:14;8.00;;;2.90;;
28625;SDS011;18905;42.668;23.364;2023-07-20T13:24:40;10.77;;;3.50;;
28625;SDS011;18905;42.668;23.364;2023-07-20T13:27:06;8.05;;;3.45;;
28625;SDS011;18905;42.668;23.364;2023-07-20T13:29:31;7.03;;;2.70;;
28625;SDS011;18905;42.668;23.364;2023-07-20T13:31:57;9.15;;;3.00;;
28625;SDS011;18905;42.668;23.364;2023-07-20T13:34:23;9.90;;;3.10;;
28625;SDS011;18905;42.668;23.364;2023-07-20T13:36:49;17.38;;;3.17;;
28625;SDS011;18905;42.668;23.364;2023-07-20T13:39:14;5.68;;;2.60;;
28625;SDS011;18905;42.668;23.364;2023-07-20T13:41:40;12.95;;;2.60;;
28625;SDS011;18905;42.668;23.364;2023-07-20T13:44:05;11.15;;;2.70;;
28625;SDS011;18905;42.668;23.364;2023-07-20T13:46:31;10.70;;;2.90;;
28625;SDS011;18905;42.668;23.364;2023-07-20T13:48:56;17.50;;;3.17;;
28625;SDS011;18905;42.668;23.364;2023-07-20T13:51:21;18.15;;;2.70;;
28625;SDS011;18905;42.668;23.364;2023-07-20T13:53:47;11.85;;;2.75;;
28625;SDS011;18905;42.668;23.364;2023-07-20T13:56:13;10.75;;;2.67;;
28625;SDS011;18905;42.668;23.364;2023-07-20T13:58:39;14.27;;;3.10;;
28625;SDS011;18905;42.668;23.364;2023-07-20T14:01:04;10.35;;;2.80;;
28625;SDS011;18905;42.668;23.364;2023-07-20T14:03:29;15.93;;;3.53;;
28625;SDS011;18905;42.668;23.364;2023-07-20T14:05:55;14.10;;;3.17;;
28625;SDS011;18905;42.668;23.364;2023-07-20T14:08:21;15.77;;;2.83;;
28625;SDS011;18905;42.668;23.364;2023-07-20T14:10:47;7.07;;;2.60;;
28625;SDS011;18905;42.668;23.364;2023-07-20T14:13:12;11.45;;;2.65;;
28625;SDS011;18905;42.668;23.364;2023-07-20T14:15:38;15.55;;;3.15;;
28625;SDS011;18905;42.668;23.364;2023-07-20T14:18:04;14.35;;;2.70;;
28625;SDS011;18905;42.668;23.364;2023-07-20T14:20:29;11.82;;;3.33;;
28625;SDS011;18905;42.668;23.364;2023-07-20T14:22:55;5.95;;;2.00;;
28625;SDS011;18905;42.668;23.364;2023-07-20T14:25:20;14.88;;;3.00;;
28625;SDS011;18905;42.668;23.364;2023-07-20T14:27:45;10.50;;;3.00;;
28625;SDS011;18905;42.668;23.364;2023-07-20T14:30:11;12.10;;;2.70;;
28625;SDS011;18905;42.668;23.364;2023-07-20T14:32:36;11.88;;;2.80;;
28625;SDS011;18905;42.668;23.364;2023-07-20T14:35:02;13.35;;;2.80;;
28625;SDS011;18905;42.668;23.364;2023-07-20T14:37:28;8.18;;;2.80;;
28625;SDS011;18905;42.668;23.364;2023-07-20T14:39:54;12.25;;;2.60;;
28625;SDS011;18905;42.668;23.364;2023-07-20T14:42:19;13.20;;;2.90;;
28625;SDS011;18905;42.668;23.364;2023-07-20T14:44:44;13.00;;;2.87;;
28625;SDS011;18905;42.668;23.364;2023-07-20T14:47:10;7.45;;;2.70;;
28625;SDS011;18905;42.668;23.364;2023-07-20T14:49:35;13.10;;;3.30;;
28625;SDS011;18905;42.668;23.364;2023-07-20T14:52:00;8.80;;;2.73;;
28625;SDS011;18905;42.668;23.364;2023-07-20T14:54:27;9.60;;;2.60;;
28625;SDS011;18905;42.668;23.364;2023-07-20T14:56:52;6.80;;;2.72;;
28625;SDS011;18905;42.668;23.364;2023-07-20T14:59:18;9.57;;;2.78;;
28625;SDS011;18905;42.668;23.364;2023-07-20T15:01:44;10.20;;;3.40;;
28625;SDS011;18905;42.668;23.364;2023-07-20T15:04:13;9.48;;;3.00;;
28625;SDS011;18905;42.668;23.364;2023-07-20T15:06:39;11.82;;;2.97;;
28625;SDS011;18905;42.668;23.364;2023-07-20T15:09:05;12.98;;;2.95;;
28625;SDS011;18905;42.668;23.364;2023-07-20T15:11:30;16.35;;;2.85;;
28625;SDS011;18905;42.668;23.364;2023-07-20T15:13:56;5.95;;;2.55;;
28625;SDS011;18905;42.668;23.364;2023-07-20T15:16:22;7.38;;;2.65;;
28625;SDS011;18905;42.668;23.364;2023-07-20T15:18:48;10.40;;;3.45;;